Time;durP1;ratioP1;P1;durP2;ratioP2;P2;SDS_P1;SDS_P2;PMS_P1;PMS_P2;Temp;Humidity;BMP_temperature;BMP_pressure;BME280_temperature;BME280_humidity;BME280_pressure;Samples;Min_cycle;Max_cycle;Signal;HPM_P1;HPM_P2
2023/11/25 00:01:58;;;;;;;3.70;2.00;;;2.00;99.90;;;;;;493984;241;28467;-72
2023/11/25 00:03:59;;;;;;;4.15;2.15;;;2.00;99.90;;;;;;493972;241;27517;-72
2023/11/25 00:06:00;;;;;;;5.07;1.85;;;2.00;99.90;;;;;;493979;241;27466;-71
2023/11/25 00:08:01;;;;;;;4.18;1.60;;;2.10;99.90;;;;;;493971;241;27506;-71
2023/11/25 00:10:04;;;;;;;13.30;1.98;;;2.00;99.90;;;;;;494058;241;27533;-73
2023/11/25 00:12:04;;;;;;;3.60;1.70;;;2.00;99.90;;;;;;493904;241;27466;-71
2023/11/25 00:14:05;;;;;;;7.85;1.40;;;2.00;99.90;;;;;;494082;241;27518;-72
2023/11/25 00:16:06;;;;;;;8.23;1.80;;;2.10;99.90;;;;;;494052;241;27588;-71
2023/11/25 00:18:11;;;;;;;7.47;1.67;;;2.10;99.90;;;;;;493986;241;27506;-71
2023/11/25 00:20:12;;;;;;;5.60;1.80;;;2.10;99.90;;;;;;493998;241;27457;-72
2023/11/25 00:22:13;;;;;;;3.22;1.45;;;2.00;99.90;;;;;;494077;241;27472;-73
2023/11/25 00:24:14;;;;;;;6.53;2.00;;;2.10;99.90;;;;;;494084;241;27504;-71
2023/11/25 00:26:16;;;;;;;7.75;2.17;;;2.00;99.90;;;;;;494062;241;27502;-72
2023/11/25 00:28:17;;;;;;;3.60;2.03;;;2.00;99.90;;;;;;494085;241;27849;-71
2023/11/25 00:30:18;;;;;;;6.82;1.85;;;2.00;99.90;;;;;;494009;241;27892;-71
2023/11/25 00:32:20;;;;;;;7.95;2.05;;;2.00;99.90;;;;;;493878;241;27494;-72
2023/11/25 00:34:21;;;;;;;3.97;1.50;;;2.00;99.90;;;;;;493980;241;27451;-71
2023/11/25 00:36:22;;;;;;;3.47;1.73;;;2.00;99.90;;;;;;493953;241;27514;-71
2023/11/25 00:38:23;;;;;;;5.00;1.70;;;2.00;99.90;;;;;;493974;241;28005;-73
2023/11/25 00:40:25;;;;;;;2.72;1.85;;;2.10;99.90;;;;;;494075;241;27480;-72
2023/11/25 00:42:26;;;;;;;4.03;1.60;;;2.10;99.90;;;;;;494060;241;27589;-72
2023/11/25 00:44:27;;;;;;;4.78;1.80;;;2.10;99.90;;;;;;494035;241;27466;-71
2023/11/25 00:46:28;;;;;;;4.60;1.75;;;2.10;99.90;;;;;;493978;241;27557;-71
2023/11/25 00:48:31;;;;;;;3.28;1.83;;;2.10;99.90;;;;;;493976;241;27589;-73
2023/11/25 00:50:31;;;;;;;5.37;1.62;;;2.10;99.90;;;;;;493859;241;27473;-72
2023/11/25 00:52:32;;;;;;;8.10;2.00;;;2.10;99.90;;;;;;493971;241;27567;-72
2023/11/25 00:54:33;;;;;;;5.85;2.47;;;2.10;99.90;;;;;;493918;241;28165;-72
2023/11/25 00:56:34;;;;;;;1.45;1.23;;;2.10;99.90;;;;;;494000;241;27926;-71
2023/11/25 00:58:36;;;;;;;3.47;1.62;;;2.20;99.90;;;;;;493988;241;27996;-72
2023/11/25 01:00:37;;;;;;;3.62;1.75;;;2.10;99.90;;;;;;494049;241;27949;-71
2023/11/25 01:02:38;;;;;;;4.75;1.80;;;2.10;99.90;;;;;;494089;241;27459;-71
2023/11/25 01:04:39;;;;;;;3.17;1.77;;;2.20;99.90;;;;;;494110;241;27532;-74
2023/11/25 01:06:41;;;;;;;7.80;2.58;;;2.20;99.90;;;;;;494095;241;27475;-72
2023/11/25 01:08:42;;;;;;;7.62;2.10;;;2.20;99.90;;;;;;494039;241;27574;-72
2023/11/25 01:10:43;;;;;;;4.55;1.37;;;2.20;99.90;;;;;;493974;241;27553;-72
2023/11/25 01:12:45;;;;;;;7.03;1.70;;;2.20;99.90;;;;;;493976;241;27519;-71
2023/11/25 01:14:46;;;;;;;1.85;1.60;;;2.10;99.90;;;;;;493977;241;27524;-72
2023/11/25 01:16:47;;;;;;;2.42;1.70;;;2.20;99.90;;;;;;493985;241;27555;-72
2023/11/25 01:18:48;;;;;;;2.00;1.62;;;2.20;99.90;;;;;;494050;241;27525;-71
2023/11/25 01:20:49;;;;;;;2.65;1.58;;;2.10;99.90;;;;;;494036;241;27538;-71
2023/11/25 01:22:51;;;;;;;1.73;1.60;;;2.20;99.90;;;;;;494051;241;27993;-71
2023/11/25 01:24:52;;;;;;;6.28;2.08;;;2.20;99.90;;;;;;494105;241;28123;-72
2023/11/25 01:26:54;;;;;;;2.75;1.70;;;2.10;99.90;;;;;;493937;241;27974;-72
2023/11/25 01:28:54;;;;;;;6.18;2.00;;;2.20;99.90;;;;;;493954;237;28080;-72
2023/11/25 01:30:56;;;;;;;3.28;1.90;;;2.10;99.90;;;;;;493976;241;27497;-74
2023/11/25 01:32:58;;;;;;;7.22;1.60;;;2.10;99.90;;;;;;494003;241;27480;-72
2023/11/25 01:34:58;;;;;;;1.92;1.33;;;2.10;99.90;;;;;;493876;241;27506;-72
2023/11/25 01:36:59;;;;;;;6.72;1.98;;;2.00;99.90;;;;;;493961;241;27605;-71
2023/11/25 01:39:01;;;;;;;6.78;1.90;;;2.00;99.90;;;;;;494001;241;27533;-72
2023/11/25 01:41:02;;;;;;;3.20;1.50;;;2.00;99.90;;;;;;494108;241;27859;-73
2023/11/25 01:43:03;;;;;;;9.75;2.05;;;2.00;99.90;;;;;;494065;240;27470;-71
2023/11/25 01:45:04;;;;;;;4.25;2.17;;;2.00;99.90;;;;;;494087;241;27564;-72
2023/11/25 01:47:06;;;;;;;5.25;1.75;;;1.90;99.90;;;;;;494077;241;27506;-74
2023/11/25 01:49:10;;;;;;;7.78;1.85;;;1.90;99.90;;;;;;494081;241;27580;-71
2023/11/25 01:51:11;;;;;;;3.80;1.50;;;1.90;99.90;;;;;;494026;241;27631;-71
2023/11/25 01:53:13;;;;;;;4.35;1.75;;;1.90;99.90;;;;;;494025;241;27512;-74
2023/11/25 01:55:14;;;;;;;2.95;1.75;;;1.90;99.90;;;;;;494026;241;27586;-71
2023/11/25 01:57:15;;;;;;;2.08;1.75;;;1.90;99.90;;;;;;493966;241;27621;-72
2023/11/25 01:59:16;;;;;;;7.78;2.08;;;1.90;99.90;;;;;;493997;241;27453;-72
2023/11/25 02:01:17;;;;;;;6.75;1.70;;;1.90;99.90;;;;;;494077;241;27582;-72
2023/11/25 02:03:18;;;;;;;7.68;1.80;;;1.90;99.90;;;;;;494083;241;27498;-72
2023/11/25 02:05:20;;;;;;;4.10;1.70;;;1.90;99.90;;;;;;494059;241;27504;-71
2023/11/25 02:07:21;;;;;;;3.15;1.45;;;1.90;99.90;;;;;;494047;241;27513;-72
2023/11/25 02:09:24;;;;;;;4.85;1.92;;;1.90;99.90;;;;;;494071;241;27569;-74
2023/11/25 02:11:25;;;;;;;3.20;1.90;;;1.90;99.90;;;;;;493909;241;27472;-72
2023/11/25 02:13:25;;;;;;;4.95;2.20;;;1.90;99.90;;;;;;493894;241;28049;-72
2023/11/25 02:15:26;;;;;;;7.10;2.10;;;1.90;99.90;;;;;;494028;241;27909;-71
2023/11/25 02:17:27;;;;;;;3.90;1.80;;;1.90;99.90;;;;;;493990;241;27976;-72
2023/11/25 02:19:28;;;;;;;1.98;1.87;;;2.00;99.90;;;;;;493995;241;28107;-73
2023/11/25 02:21:30;;;;;;;2.25;1.62;;;1.90;99.90;;;;;;493974;241;27501;-72
2023/11/25 02:23:34;;;;;;;2.10;1.73;;;1.90;99.90;;;;;;493997;241;27548;-72
2023/11/25 02:25:32;;;;;;;3.35;1.65;;;1.90;99.90;;;;;;493774;241;27494;-72
2023/11/25 02:27:36;;;;;;;3.92;1.67;;;1.90;99.90;;;;;;493970;241;27452;-72
2023/11/25 02:29:35;;;;;;;3.53;1.62;;;1.90;99.90;;;;;;493846;241;27518;-74
2023/11/25 02:31:39;;;;;;;9.48;2.05;;;1.90;99.90;;;;;;494007;241;27479;-71
2023/11/25 02:33:37;;;;;;;3.85;1.65;;;1.80;99.90;;;;;;493867;241;27496;-72
2023/11/25 02:35:40;;;;;;;5.55;1.52;;;1.70;99.90;;;;;;494067;241;27462;-72
2023/11/25 02:37:41;;;;;;;5.62;2.17;;;1.70;99.90;;;;;;494026;241;27584;-71
2023/11/25 02:39:41;;;;;;;3.03;1.52;;;1.70;99.90;;;;;;493924;241;27500;-72
2023/11/25 02:41:42;;;;;;;3.75;2.00;;;1.60;99.90;;;;;;493983;241;27934;-72
2023/11/25 02:43:43;;;;;;;2.10;1.60;;;1.60;99.90;;;;;;493994;241;27970;-72
2023/11/25 02:45:45;;;;;;;4.45;1.60;;;1.60;99.90;;;;;;494005;241;28844;-74
2023/11/25 02:47:47;;;;;;;4.12;1.70;;;1.50;99.90;;;;;;494020;241;27560;-72
2023/11/25 02:49:47;;;;;;;3.78;1.90;;;1.50;99.90;;;;;;493994;241;27533;-72
2023/11/25 02:51:48;;;;;;;3.78;1.98;;;1.40;99.90;;;;;;493999;241;27603;-72
2023/11/25 02:53:50;;;;;;;2.85;1.90;;;1.30;99.90;;;;;;493960;241;27506;-72
2023/11/25 02:55:51;;;;;;;4.55;1.65;;;1.40;99.90;;;;;;494109;241;27590;-73
2023/11/25 02:57:52;;;;;;;3.22;1.50;;;1.30;99.90;;;;;;494040;241;27563;-72
2023/11/25 02:59:55;;;;;;;6.15;1.95;;;1.30;99.90;;;;;;494091;241;27647;-72
2023/11/25 03:01:55;;;;;;;3.58;1.73;;;1.30;99.90;;;;;;494055;241;27454;-72
2023/11/25 03:04:01;;;;;;;6.32;2.12;;;1.30;99.90;;;;;;494105;241;27556;-72
2023/11/25 03:05:57;;;;;;;6.12;1.85;;;1.30;99.90;;;;;;493718;241;27490;-73
2023/11/25 03:08:00;;;;;;;10.70;1.90;;;1.20;99.90;;;;;;493993;241;28095;-71
2023/11/25 03:10:00;;;;;;;3.78;1.67;;;1.20;99.90;;;;;;493929;241;27973;-72
2023/11/25 03:12:01;;;;;;;4.12;1.83;;;1.20;99.90;;;;;;493961;241;28842;-71
2023/11/25 03:14:02;;;;;;;2.12;1.85;;;1.10;99.90;;;;;;494013;241;27949;-72
2023/11/25 03:16:05;;;;;;;8.25;2.20;;;1.10;99.90;;;;;;494091;241;27589;-72
2023/11/25 03:18:08;;;;;;;4.45;1.80;;;1.00;99.90;;;;;;493882;241;27623;-71
2023/11/25 03:20:07;;;;;;;8.27;2.33;;;1.00;99.90;;;;;;493784;241;27516;-73
2023/11/25 03:22:07;;;;;;;2.28;1.83;;;1.00;99.90;;;;;;493892;241;27489;-71
2023/11/25 03:24:08;;;;;;;2.17;1.70;;;1.00;99.90;;;;;;493939;241;27636;-71
2023/11/25 03:26:12;;;;;;;8.00;1.90;;;1.00;99.90;;;;;;493940;241;27539;-73
2023/11/25 03:28:11;;;;;;;4.70;1.83;;;0.90;99.90;;;;;;493784;241;27588;-71
2023/11/25 03:30:12;;;;;;;4.80;2.30;;;0.90;99.90;;;;;;493914;241;27533;-72
2023/11/25 03:32:14;;;;;;;5.70;1.80;;;0.80;99.90;;;;;;494055;241;27574;-72
2023/11/25 03:34:15;;;;;;;3.28;1.98;;;0.80;99.90;;;;;;493966;241;27506;-71
2023/11/25 03:36:16;;;;;;;2.30;2.10;;;0.80;99.90;;;;;;493928;241;28778;-72
2023/11/25 03:38:17;;;;;;;4.30;2.10;;;0.80;99.90;;;;;;493917;240;28085;-71
2023/11/25 03:40:18;;;;;;;5.53;2.22;;;0.80;99.90;;;;;;494031;241;27976;-72
2023/11/25 03:42:20;;;;;;;3.17;1.60;;;0.80;99.90;;;;;;494042;241;28034;-74
2023/11/25 03:44:21;;;;;;;2.37;2.17;;;0.80;99.90;;;;;;494056;241;27498;-71
2023/11/25 03:46:23;;;;;;;3.37;1.60;;;0.70;99.90;;;;;;494008;241;27541;-71
2023/11/25 03:48:23;;;;;;;2.45;1.48;;;0.70;99.90;;;;;;493994;241;27474;-71
2023/11/25 03:50:25;;;;;;;4.28;1.92;;;0.70;99.90;;;;;;494009;241;27575;-71
2023/11/25 03:52:26;;;;;;;4.00;1.70;;;0.60;99.90;;;;;;494021;241;27529;-71
2023/11/25 03:54:28;;;;;;;4.10;1.60;;;0.60;99.90;;;;;;493967;241;27481;-71
2023/11/25 03:56:28;;;;;;;2.53;1.80;;;0.60;99.90;;;;;;493968;241;27518;-71
2023/11/25 03:58:30;;;;;;;1.90;1.70;;;0.60;99.90;;;;;;493987;241;27624;-71
2023/11/25 04:00:32;;;;;;;7.87;2.60;;;0.60;99.90;;;;;;494028;241;27515;-71
2023/11/25 04:02:32;;;;;;;1.60;1.50;;;0.50;99.90;;;;;;494055;241;27514;-71
2023/11/25 04:04:34;;;;;;;1.75;1.50;;;0.50;99.90;;;;;;494047;239;28002;-71
2023/11/25 04:06:35;;;;;;;9.00;2.10;;;0.50;99.90;;;;;;494059;241;28070;-71
2023/11/25 04:08:36;;;;;;;2.45;1.65;;;0.40;99.90;;;;;;493987;241;28165;-72
2023/11/25 04:10:38;;;;;;;2.67;1.83;;;0.40;99.90;;;;;;493984;241;27944;-70
2023/11/25 04:12:38;;;;;;;3.70;2.00;;;0.40;99.90;;;;;;493983;241;27548;-71
2023/11/25 04:14:40;;;;;;;3.40;2.00;;;0.40;99.90;;;;;;493974;241;27509;-71
2023/11/25 04:16:43;;;;;;;3.20;1.90;;;0.30;99.90;;;;;;494000;241;27502;-71
2023/11/25 04:18:42;;;;;;;4.35;1.40;;;0.30;99.90;;;;;;493842;241;27603;-72
2023/11/25 04:20:44;;;;;;;4.05;1.90;;;0.30;99.90;;;;;;493987;241;27455;-71
2023/11/25 04:22:45;;;;;;;3.72;1.55;;;0.30;99.90;;;;;;494004;241;27595;-71
2023/11/25 04:24:47;;;;;;;2.97;1.70;;;0.30;99.90;;;;;;493960;241;27542;-71
2023/11/25 04:26:47;;;;;;;1.73;1.55;;;0.30;99.90;;;;;;493950;241;27461;-71
2023/11/25 04:28:48;;;;;;;3.00;1.98;;;0.30;99.90;;;;;;494000;241;27608;-72
2023/11/25 04:30:50;;;;;;;6.43;1.80;;;0.20;99.90;;;;;;493959;241;28043;-71
2023/11/25 04:32:51;;;;;;;2.78;1.85;;;0.20;99.90;;;;;;493994;241;27979;-71
2023/11/25 04:34:52;;;;;;;5.50;2.22;;;0.20;99.90;;;;;;494027;241;28155;-71
2023/11/25 04:36:54;;;;;;;3.55;2.20;;;0.20;99.90;;;;;;494117;241;27946;-71
2023/11/25 04:38:56;;;;;;;3.70;1.85;;;0.20;99.90;;;;;;493987;241;27512;-72
2023/11/25 04:40:56;;;;;;;4.78;2.03;;;0.20;99.90;;;;;;493874;241;27566;-71
2023/11/25 04:42:58;;;;;;;3.10;1.73;;;0.20;99.90;;;;;;494047;241;27541;-72
2023/11/25 04:44:58;;;;;;;4.18;2.20;;;0.20;99.90;;;;;;494031;241;27579;-72
2023/11/25 04:47:00;;;;;;;3.17;2.08;;;0.20;99.90;;;;;;494060;241;27604;-71
2023/11/25 04:49:01;;;;;;;2.37;1.98;;;0.20;99.90;;;;;;494052;241;27505;-72
2023/11/25 04:51:02;;;;;;;3.92;2.00;;;0.20;99.90;;;;;;493991;241;27529;-72
2023/11/25 04:53:03;;;;;;;8.25;2.05;;;0.20;99.90;;;;;;493996;241;27966;-71
2023/11/25 04:55:05;;;;;;;2.80;2.05;;;0.10;99.90;;;;;;494056;241;27983;-71
2023/11/25 04:57:06;;;;;;;2.75;2.17;;;0.10;99.90;;;;;;494070;241;28097;-71
2023/11/25 04:59:07;;;;;;;6.40;2.25;;;0.10;99.90;;;;;;494101;241;28096;-71
2023/11/25 05:01:08;;;;;;;2.55;1.90;;;0.00;99.90;;;;;;494084;241;27753;-71
2023/11/25 05:03:10;;;;;;;2.75;2.33;;;0.00;99.90;;;;;;493986;241;27512;-71
2023/11/25 05:05:12;;;;;;;5.37;2.10;;;0.00;99.90;;;;;;494068;241;27510;-73
2023/11/25 05:07:12;;;;;;;3.60;1.80;;;0.00;99.90;;;;;;493932;241;27466;-71
2023/11/25 05:09:18;;;;;;;1.80;1.65;;;-0.10;99.90;;;;;;493991;241;27610;-71
2023/11/25 05:11:17;;;;;;;6.32;2.12;;;0.00;99.90;;;;;;493869;241;28006;-72
2023/11/25 05:13:19;;;;;;;9.27;2.33;;;0.00;99.90;;;;;;494013;241;28167;-71
2023/11/25 05:15:22;;;;;;;4.57;2.20;;;0.00;99.90;;;;;;494083;241;28039;-71
2023/11/25 05:17:21;;;;;;;4.47;2.00;;;-0.10;99.90;;;;;;493937;241;27518;-71
2023/11/25 05:19:22;;;;;;;2.95;2.00;;;-0.10;99.90;;;;;;494046;241;27564;-71
2023/11/25 05:21:24;;;;;;;3.95;1.98;;;-0.10;99.90;;;;;;494042;241;27582;-72
2023/11/25 05:23:25;;;;;;;1.80;1.70;;;-0.10;99.90;;;;;;494062;241;27878;-73
2023/11/25 05:25:26;;;;;;;4.12;2.17;;;-0.10;99.90;;;;;;494025;241;27511;-71
2023/11/25 05:27:28;;;;;;;3.25;1.40;;;-0.20;99.90;;;;;;494002;241;27520;-71
2023/11/25 05:29:29;;;;;;;3.40;1.90;;;-0.10;99.90;;;;;;494005;238;27536;-71
2023/11/25 05:31:33;;;;;;;4.87;1.80;;;-0.10;99.90;;;;;;493998;241;27970;-71
2023/11/25 05:33:33;;;;;;;8.25;2.50;;;-0.10;99.90;;;;;;493821;241;27996;-72
2023/11/25 05:35:32;;;;;;;2.42;1.92;;;-0.20;99.90;;;;;;493974;241;27903;-70
2023/11/25 05:37:34;;;;;;;2.55;2.00;;;-0.10;99.90;;;;;;494012;241;27517;-71
2023/11/25 05:39:35;;;;;;;2.30;1.50;;;-0.10;99.90;;;;;;493999;241;27512;-71
2023/11/25 05:41:37;;;;;;;2.08;1.85;;;-0.10;99.90;;;;;;494077;241;27462;-70
2023/11/25 05:43:39;;;;;;;3.30;2.22;;;-0.10;99.90;;;;;;494033;241;27511;-71
2023/11/25 05:45:40;;;;;;;5.18;2.70;;;-0.10;99.90;;;;;;493935;241;27485;-71
2023/11/25 05:47:40;;;;;;;4.53;2.47;;;-0.20;99.90;;;;;;493891;241;27512;-71
2023/11/25 05:49:42;;;;;;;4.28;2.37;;;-0.10;99.90;;;;;;494027;241;27522;-74
2023/11/25 05:51:43;;;;;;;2.85;2.00;;;-0.10;99.90;;;;;;493977;241;27925;-71
2023/11/25 05:53:44;;;;;;;5.70;2.53;;;-0.10;99.90;;;;;;494026;241;28024;-71
2023/11/25 05:55:45;;;;;;;6.70;2.35;;;-0.10;99.90;;;;;;494108;237;27469;-71
2023/11/25 05:57:46;;;;;;;4.32;2.60;;;-0.10;99.90;;;;;;494089;241;27458;-72
2023/11/25 05:59:48;;;;;;;2.65;2.45;;;-0.20;99.90;;;;;;494027;241;27510;-72
2023/11/25 06:01:49;;;;;;;3.78;2.83;;;-0.20;99.90;;;;;;494044;241;27471;-71
2023/11/25 06:03:53;;;;;;;6.97;2.60;;;-0.20;99.90;;;;;;494004;241;27616;-71
2023/11/25 06:05:54;;;;;;;6.47;2.80;;;-0.20;99.90;;;;;;494023;241;29179;-70
2023/11/25 06:07:55;;;;;;;3.95;2.55;;;-0.30;99.90;;;;;;494079;241;27474;-71
2023/11/25 06:09:57;;;;;;;4.53;2.00;;;-0.30;99.90;;;;;;494077;241;27474;-71
2023/11/25 06:11:58;;;;;;;2.20;2.00;;;-0.30;99.90;;;;;;494040;241;27616;-71
2023/11/25 06:13:59;;;;;;;4.15;2.05;;;-0.30;99.90;;;;;;494085;239;27467;-72
2023/11/25 06:16:00;;;;;;;4.80;2.00;;;-0.30;99.90;;;;;;494050;237;27523;-71
2023/11/25 06:18:02;;;;;;;2.67;1.85;;;-0.20;99.90;;;;;;494090;241;27503;-72
2023/11/25 06:20:03;;;;;;;6.82;2.00;;;-0.30;99.90;;;;;;494074;241;27485;-71
2023/11/25 06:22:04;;;;;;;2.58;1.75;;;-0.20;99.90;;;;;;494009;241;28069;-71
2023/11/25 06:24:06;;;;;;;5.20;2.37;;;-0.20;99.90;;;;;;494020;241;27909;-71
2023/11/25 06:26:10;;;;;;;4.80;2.17;;;-0.20;99.90;;;;;;493971;241;28084;-71
2023/11/25 06:28:08;;;;;;;3.97;2.12;;;-0.30;99.90;;;;;;493778;241;27596;-71
2023/11/25 06:30:09;;;;;;;2.87;1.85;;;-0.30;99.90;;;;;;494042;241;27565;-71
2023/11/25 06:32:11;;;;;;;4.70;1.90;;;-0.30;99.90;;;;;;494003;241;27506;-71
2023/11/25 06:34:12;;;;;;;3.35;1.87;;;-0.30;99.90;;;;;;493965;241;27494;-71
2023/11/25 06:36:13;;;;;;;3.97;1.65;;;-0.30;99.90;;;;;;493992;241;27506;-71
2023/11/25 06:38:14;;;;;;;3.75;1.80;;;-0.30;99.90;;;;;;494003;241;27525;-73
2023/11/25 06:40:15;;;;;;;4.05;2.17;;;-0.30;99.90;;;;;;493988;241;27563;-71
2023/11/25 06:42:17;;;;;;;4.00;2.50;;;-0.30;99.90;;;;;;493969;241;28088;-71
2023/11/25 06:44:18;;;;;;;2.47;1.62;;;-0.30;99.90;;;;;;493781;241;29800;-71
2023/11/25 06:46:22;;;;;;;4.97;2.28;;;-0.30;99.90;;;;;;494006;241;27453;-71
2023/11/25 06:48:23;;;;;;;21.20;2.70;;;-0.30;99.90;;;;;;493769;241;27509;-72
2023/11/25 06:50:22;;;;;;;3.25;2.05;;;-0.30;99.90;;;;;;493868;241;27481;-72
2023/11/25 06:52:23;;;;;;;3.15;2.10;;;-0.30;99.90;;;;;;494076;241;27505;-72
2023/11/25 06:54:24;;;;;;;3.05;2.00;;;-0.30;99.90;;;;;;494004;241;27868;-74
2023/11/25 06:56:26;;;;;;;4.20;1.65;;;-0.30;99.90;;;;;;494085;241;27565;-71
2023/11/25 06:58:27;;;;;;;8.25;2.35;;;-0.30;99.90;;;;;;494011;241;27522;-71
2023/11/25 07:00:28;;;;;;;7.05;2.53;;;-0.30;99.90;;;;;;494072;241;27904;-71
2023/11/25 07:02:29;;;;;;;4.20;2.58;;;-0.30;99.90;;;;;;494019;241;29113;-72
2023/11/25 07:04:30;;;;;;;6.32;2.80;;;-0.30;99.90;;;;;;494102;241;27541;-72
2023/11/25 07:06:32;;;;;;;11.30;2.72;;;-0.30;99.90;;;;;;494031;241;27454;-71
2023/11/25 07:08:33;;;;;;;4.80;2.37;;;-0.30;99.90;;;;;;494035;241;27585;-72
2023/11/25 07:10:37;;;;;;;5.53;2.72;;;-0.30;99.90;;;;;;494069;241;27559;-71
2023/11/25 07:12:38;;;;;;;4.90;2.28;;;-0.30;99.90;;;;;;493987;241;27481;-71
2023/11/25 07:14:40;;;;;;;5.45;2.87;;;-0.20;99.90;;;;;;493989;241;27513;-71
2023/11/25 07:16:41;;;;;;;3.05;2.12;;;-0.20;99.90;;;;;;494001;241;27529;-71
2023/11/25 07:18:42;;;;;;;8.10;3.65;;;-0.10;99.90;;;;;;493970;241;27545;-72
2023/11/25 07:20:44;;;;;;;10.38;3.33;;;-0.10;99.90;;;;;;493968;241;27532;-72
2023/11/25 07:22:44;;;;;;;7.20;2.70;;;-0.10;99.90;;;;;;493915;241;28734;-71
2023/11/25 07:24:46;;;;;;;4.35;2.55;;;-0.10;99.90;;;;;;494005;241;27937;-72
2023/11/25 07:26:51;;;;;;;3.58;2.33;;;0.00;99.90;;;;;;494000;241;27508;-72
2023/11/25 07:28:48;;;;;;;3.45;2.30;;;0.10;99.90;;;;;;493619;241;27549;-71
2023/11/25 07:30:49;;;;;;;5.47;2.00;;;0.10;99.90;;;;;;493966;241;27643;-72
2023/11/25 07:32:51;;;;;;;5.32;3.00;;;0.10;99.90;;;;;;494030;241;27535;-72
2023/11/25 07:34:52;;;;;;;5.47;2.78;;;0.20;99.90;;;;;;494018;241;27470;-72
2023/11/25 07:36:53;;;;;;;5.45;2.55;;;0.30;99.90;;;;;;494013;241;27640;-71
2023/11/25 07:38:54;;;;;;;8.68;3.05;;;0.30;99.90;;;;;;493994;241;27477;-71
2023/11/25 07:40:56;;;;;;;9.38;3.10;;;0.40;99.90;;;;;;493990;241;27521;-72
2023/11/25 07:42:58;;;;;;;6.00;2.70;;;0.40;99.90;;;;;;494011;241;27521;-72
2023/11/25 07:44:58;;;;;;;7.87;3.35;;;0.40;99.90;;;;;;494005;241;27473;-71
2023/11/25 07:47:01;;;;;;;9.35;3.05;;;0.50;99.90;;;;;;493928;240;28030;-73
2023/11/25 07:49:02;;;;;;;13.73;3.90;;;0.50;99.90;;;;;;493825;241;28068;-71
2023/11/25 07:51:02;;;;;;;9.38;3.42;;;0.60;99.90;;;;;;493888;241;27930;-72
2023/11/25 07:53:03;;;;;;;12.52;3.40;;;0.60;99.90;;;;;;493972;241;27984;-72
2023/11/25 07:55:04;;;;;;;13.02;3.53;;;0.70;99.90;;;;;;493991;241;27498;-71
2023/11/25 07:57:06;;;;;;;10.80;3.17;;;0.70;99.90;;;;;;493960;241;27513;-71
2023/11/25 07:59:07;;;;;;;8.93;3.35;;;0.70;99.90;;;;;;493981;241;27638;-71
2023/11/25 08:01:08;;;;;;;6.50;3.17;;;0.80;99.90;;;;;;494020;241;27486;-71
2023/11/25 08:03:09;;;;;;;8.65;3.45;;;0.80;99.90;;;;;;493988;241;27558;-72
2023/11/25 08:05:21;;;;;;;10.93;3.67;;;0.80;99.90;;;;;;494031;241;27631;-71
2023/11/25 08:07:15;;;;;;;9.10;3.28;;;0.90;99.90;;;;;;493362;241;27477;-71
2023/11/25 08:09:18;;;;;;;11.07;3.25;;;0.90;99.90;;;;;;493970;241;27532;-72
2023/11/25 08:11:17;;;;;;;7.95;2.95;;;0.90;99.90;;;;;;493930;241;27525;-72
2023/11/25 08:13:19;;;;;;;6.07;3.03;;;1.00;99.90;;;;;;494066;241;27488;-72
2023/11/25 08:15:20;;;;;;;10.35;2.97;;;1.00;99.90;;;;;;493962;241;28003;-72
2023/11/25 08:17:21;;;;;;;12.05;3.83;;;1.00;99.90;;;;;;493942;241;27473;-71
2023/11/25 08:19:22;;;;;;;11.40;3.55;;;1.00;99.90;;;;;;493979;241;27945;-71
2023/11/25 08:21:24;;;;;;;15.38;3.65;;;1.00;99.90;;;;;;494001;241;28069;-72
2023/11/25 08:23:25;;;;;;;11.85;3.33;;;1.10;99.90;;;;;;493983;241;28075;-72
2023/11/25 08:25:26;;;;;;;11.27;3.60;;;1.10;99.90;;;;;;493974;241;27498;-71
2023/11/25 08:27:30;;;;;;;12.82;3.85;;;1.10;99.90;;;;;;494008;241;27618;-72
2023/11/25 08:29:29;;;;;;;11.73;3.10;;;1.20;99.90;;;;;;493922;241;27479;-72
2023/11/25 08:31:30;;;;;;;5.00;3.22;;;1.20;99.90;;;;;;493985;241;27670;-72
2023/11/25 08:33:31;;;;;;;13.43;3.30;;;1.20;99.90;;;;;;493985;237;27644;-71
2023/11/25 08:35:32;;;;;;;7.28;3.30;;;1.20;99.90;;;;;;493967;241;27504;-71
2023/11/25 08:37:34;;;;;;;9.45;3.90;;;1.30;99.90;;;;;;493999;241;27497;-72
2023/11/25 08:39:36;;;;;;;9.30;3.65;;;1.30;99.90;;;;;;493981;241;27947;-71
2023/11/25 08:41:36;;;;;;;13.90;4.22;;;1.30;99.90;;;;;;493962;241;28082;-71
2023/11/25 08:43:37;;;;;;;14.63;3.90;;;1.30;99.90;;;;;;493965;241;27454;-71
2023/11/25 08:45:39;;;;;;;14.27;3.40;;;1.30;99.90;;;;;;493983;241;27476;-72
2023/11/25 08:47:41;;;;;;;15.48;3.25;;;1.30;99.90;;;;;;493970;241;27601;-72
2023/11/25 08:49:41;;;;;;;9.82;3.35;;;1.30;99.90;;;;;;493899;241;27593;-72
2023/11/25 08:51:46;;;;;;;12.30;3.83;;;1.40;99.90;;;;;;493969;241;27530;-72
2023/11/25 08:53:44;;;;;;;5.35;3.10;;;1.40;99.90;;;;;;493721;240;27609;-73
2023/11/25 08:55:45;;;;;;;9.27;3.90;;;1.40;99.90;;;;;;493957;241;27654;-72
2023/11/25 08:57:47;;;;;;;13.82;4.75;;;1.40;99.90;;;;;;493991;241;27620;-72
2023/11/25 08:59:48;;;;;;;14.45;3.95;;;1.50;99.90;;;;;;493947;241;28013;-71
2023/11/25 09:01:51;;;;;;;13.52;3.28;;;1.50;99.90;;;;;;493985;241;27965;-71
2023/11/25 09:03:50;;;;;;;12.75;4.20;;;1.50;99.90;;;;;;493791;241;27972;-73
2023/11/25 09:05:51;;;;;;;9.00;3.90;;;1.40;99.90;;;;;;494009;241;27531;-71
2023/11/25 09:07:54;;;;;;;17.02;4.30;;;1.50;99.90;;;;;;493967;241;27541;-72
2023/11/25 09:09:54;;;;;;;29.85;4.70;;;1.50;99.90;;;;;;493906;241;27465;-72
2023/11/25 09:11:55;;;;;;;12.32;4.07;;;1.60;99.90;;;;;;494035;241;27493;-72
2023/11/25 09:13:56;;;;;;;12.60;4.20;;;1.60;99.90;;;;;;493986;241;27500;-74
2023/11/25 09:15:57;;;;;;;13.55;4.53;;;1.60;99.90;;;;;;493994;237;27478;-72
2023/11/25 09:17:59;;;;;;;9.73;3.58;;;1.60;99.90;;;;;;493969;241;27605;-72
2023/11/25 09:20:00;;;;;;;20.05;3.75;;;1.60;99.90;;;;;;494015;241;28689;-72
2023/11/25 09:22:01;;;;;;;15.00;3.95;;;1.60;99.90;;;;;;494109;241;28091;-72
2023/11/25 09:24:03;;;;;;;12.00;3.92;;;1.70;99.90;;;;;;494061;241;27491;-74
2023/11/25 09:26:04;;;;;;;13.35;3.70;;;1.80;99.90;;;;;;493946;241;27586;-73
2023/11/25 09:28:05;;;;;;;6.47;3.17;;;1.80;99.90;;;;;;493983;241;27501;-73
2023/11/25 09:30:10;;;;;;;8.57;3.80;;;1.80;99.90;;;;;;494034;241;27898;-73
2023/11/25 09:32:07;;;;;;;12.05;3.28;;;1.90;99.90;;;;;;493689;239;27550;-72
2023/11/25 09:34:09;;;;;;;9.70;3.15;;;1.90;99.90;;;;;;494008;241;27510;-72
2023/11/25 09:36:10;;;;;;;21.17;4.45;;;1.90;99.90;;;;;;494001;241;27469;-72
2023/11/25 09:38:11;;;;;;;13.07;3.60;;;1.90;99.90;;;;;;493997;241;27509;-72
2023/11/25 09:40:15;;;;;;;14.23;3.97;;;1.90;99.90;;;;;;494095;241;27945;-73
2023/11/25 09:42:17;;;;;;;19.30;4.53;;;1.90;99.90;;;;;;494126;241;27506;-73
2023/11/25 09:44:18;;;;;;;14.40;4.10;;;1.90;99.90;;;;;;494085;241;27571;-73
2023/11/25 09:46:19;;;;;;;20.35;4.30;;;1.90;99.90;;;;;;494092;241;27624;-72
2023/11/25 09:48:21;;;;;;;15.85;4.18;;;1.90;99.90;;;;;;494032;241;27941;-73
2023/11/25 09:50:22;;;;;;;14.65;4.95;;;1.90;99.90;;;;;;493975;241;27479;-72
2023/11/25 09:52:23;;;;;;;11.98;3.92;;;1.90;99.90;;;;;;494083;241;27493;-73
2023/11/25 09:54:24;;;;;;;15.60;4.35;;;1.90;99.90;;;;;;494093;241;27969;-72
2023/11/25 09:56:25;;;;;;;13.77;3.83;;;2.00;99.90;;;;;;494080;241;29116;-72
2023/11/25 09:58:27;;;;;;;17.95;5.75;;;2.00;99.90;;;;;;494130;241;27486;-74
2023/11/25 10:00:28;;;;;;;15.27;4.70;;;2.00;99.90;;;;;;494103;241;27487;-72
2023/11/25 10:02:30;;;;;;;19.35;4.53;;;2.10;99.90;;;;;;494083;241;27528;-73
2023/11/25 10:04:32;;;;;;;18.50;5.20;;;2.10;99.90;;;;;;494008;241;27490;-72
2023/11/25 10:06:32;;;;;;;16.35;4.55;;;2.20;99.90;;;;;;493882;241;27548;-72
2023/11/25 10:08:34;;;;;;;15.48;4.32;;;2.20;99.90;;;;;;494022;241;27508;-73
2023/11/25 10:10:34;;;;;;;16.10;4.95;;;2.20;99.90;;;;;;493966;241;27462;-72
2023/11/25 10:12:36;;;;;;;14.35;4.80;;;2.20;99.90;;;;;;494082;241;28038;-72
2023/11/25 10:14:37;;;;;;;19.27;4.85;;;2.20;99.90;;;;;;494058;241;28169;-74
2023/11/25 10:16:41;;;;;;;17.20;4.55;;;2.20;99.90;;;;;;494075;241;29031;-72
2023/11/25 10:18:40;;;;;;;11.18;4.75;;;2.20;99.90;;;;;;493746;241;27471;-72
2023/11/25 10:20:41;;;;;;;24.30;6.07;;;2.20;99.90;;;;;;493983;241;27605;-73
2023/11/25 10:22:42;;;;;;;13.02;5.15;;;2.20;99.90;;;;;;493975;241;27605;-72
2023/11/25 10:24:43;;;;;;;17.33;4.82;;;2.20;99.90;;;;;;494087;241;27505;-73
2023/11/25 10:26:44;;;;;;;19.55;5.05;;;2.20;99.90;;;;;;493991;241;27539;-72
2023/11/25 10:28:46;;;;;;;12.43;4.70;;;2.20;99.90;;;;;;493973;241;27497;-72
2023/11/25 10:30:47;;;;;;;14.80;4.10;;;2.20;99.90;;;;;;494072;241;27476;-74
2023/11/25 10:32:49;;;;;;;23.33;5.85;;;2.20;99.90;;;;;;494052;241;27954;-72
2023/11/25 10:34:52;;;;;;;26.30;5.25;;;2.20;99.90;;;;;;494064;241;28000;-72
2023/11/25 10:36:51;;;;;;;18.98;5.90;;;2.20;99.90;;;;;;493877;241;29039;-72